Aérodrome :
LOGIN :

S'inscrire | Disclaimer

   EN    FR    IT 

 










Légende :    VFR   VFR Marginal   IFR   IFR Intensif   IFR Très Intensif
Visi : 
Plafond : 
>= 8 km
>= 3000ft
5 à 8 km
1000 à 3000 ft
1500m à 5 km
500 à 1000 ft
800 à 1500m
200 à 500 ft
< 800m
< 200 ft
Symboles :   Orages  Brouillard  Fortes neiges  Fortes précipitations  Vent > 20 kt
SIGMETs :   Divers  Orages  Givrage  Turbulence  Onde Orograph.  Cendres Volcan.







- Altitude de l'aérodrome : 370 ft


EBBE - Beauvechain AB

DERNIER METAR :
  • 011725Z AUTO 15005KT 4300 -DZ FEW004/// SCT007/// BKN010/// 06/06 Q1000 GRN

METARs EXPIRÉS :
  • 011708Z AUTO 16005KT 4700 -RA FEW008/// SCT015/// BKN020/// 06/06 Q1000 GRN
  • 011705Z 17005KT 9999 -RA SCT016 BKN050 06/06 Q1000 WHT FCST CANCEL
  • 011655Z 17005KT 9999 -RA SCT016 BKN050 06/05 Q1000 WHT WHT TEMPO GRN
  • 011625Z 20010KT 9999 -RA SCT016 BKN050 06/05 Q1001 WHT WHT TEMPO GRN
  • 011555Z 21015KT 9999 -RA SCT016 BKN050 07/04 Q1001 WHT WHT TEMPO GRN
  • 011525Z 21017KT 9999 -RA SCT018 BKN050 07/04 Q1001 WHT GRN TEMPO GRN
  • 011455Z 21013KT 9999 FEW017 SCT021 BKN030 08/05 Q1001 WHT GRN TEMPO GRN
  • 011425Z 22007KT 9999 -RA FEW013 SCT018 BKN024 07/05 Q1002 WHT GRN TEMPO GRN

TAF TAF EBBE
Valide du 01 à 13h jusqu'au 01 à 22h UTC


011141Z 0113/0122 24012KT 9999 FEW020 SCT030
TEMPO 0113/0117 22015G25KT 4500 -SHRA SCT020 BKN030
BECMG 0115/0117 20010KT 6000 -RA SCT012 BKN015
TEMPO 0117/0122 3000 RA RADZ SCT006 SCT008 BKN012
Pas de NOTAMs connus pour ce terrain.



MET'MAP, la Météo Aéronautique d'un coup d'oeil ! - Copyright ORBIFLY Décembre 2007 - Disclaimer

ORBIFLY MET'MAP TEAM :

Programmation & Développement : Alexandra Zaïnal
Conception & Développement : Baudouin d'Aumeries
Co-Programmation & Développement : Marc-Olivier Méhu
Soutien technique & logistique : Manuel Goepfert

Contact : metmap@orbifly.com




SOURCES & CREDITS :

   NOAA